Time;durP1;ratioP1;P1;durP2;ratioP2;P2;SDS_P1;SDS_P2;PMS_P1;PMS_P2;Temp;Humidity;BMP_temperature;BMP_pressure;BME280_temperature;BME280_humidity;BME280_pressure;Samples;Min_cycle;Max_cycle;Signal;HPM_P1;HPM_P2
2021/12/21 00:00:01;;;;;;;36.50;17.17;;;-1.20;82.60;;;;;;5032023;28;20242;-68
2021/12/21 00:02:28;;;;;;;37.25;15.00;;;-1.20;81.30;;;;;;5012618;28;20246;-67
2021/12/21 00:04:56;;;;;;;30.05;15.68;;;-1.30;81.10;;;;;;5012478;28;20197;-67
2021/12/21 00:07:25;;;;;;;28.30;16.70;;;-1.40;82.10;;;;;;5031139;28;20222;-67
2021/12/21 00:09:52;;;;;;;26.67;15.05;;;-1.30;83.10;;;;;;5032078;28;20223;-67
2021/12/21 00:12:23;;;;;;;36.80;17.23;;;-1.40;83.60;;;;;;5030605;28;20256;-67
2021/12/21 00:14:59;;;;;;;37.25;17.23;;;-1.50;85.00;;;;;;5032438;28;20192;-67
2021/12/21 00:17:52;;;;;;;39.90;17.67;;;-1.50;85.60;;;;;;5013704;28;20199;-67
2021/12/21 00:20:33;;;;;;;41.05;18.00;;;-1.50;86.70;;;;;;5013903;28;20283;-67
2021/12/21 00:25:50;;;;;;;36.25;19.17;;;-1.60;88.80;;;;;;5023701;28;20188;-67
2021/12/21 00:28:17;;;;;;;35.85;20.20;;;-1.60;89.70;;;;;;5012548;28;20483;-67
2021/12/21 00:30:44;;;;;;;42.38;17.17;;;-1.60;90.00;;;;;;5018825;28;20277;-67
2021/12/21 00:33:11;;;;;;;38.63;16.35;;;-1.50;90.20;;;;;;5036278;28;20554;-67
2021/12/21 00:35:42;;;;;;;29.77;15.38;;;-1.50;90.10;;;;;;5032362;28;20670;-68
2021/12/21 00:38:11;;;;;;;33.58;15.52;;;-1.40;90.20;;;;;;5016451;28;20187;-67
2021/12/21 00:40:38;;;;;;;42.20;15.60;;;-1.40;90.10;;;;;;5018845;28;20184;-68
2021/12/21 00:43:05;;;;;;;37.30;14.50;;;-1.30;90.00;;;;;;5036409;28;20199;-67
2021/12/21 00:45:33;;;;;;;35.85;15.90;;;-1.20;90.10;;;;;;5034191;28;20196;-67
2021/12/21 00:48:00;;;;;;;38.95;15.63;;;-1.20;89.60;;;;;;5036403;28;20332;-67
2021/12/21 00:50:29;;;;;;;30.83;14.43;;;-1.10;89.40;;;;;;5035305;28;20231;-68
2021/12/21 00:52:57;;;;;;;30.70;14.77;;;-1.10;88.20;;;;;;5016366;28;20594;-67
2021/12/21 00:55:26;;;;;;;30.08;15.35;;;-1.10;88.10;;;;;;5016344;28;20200;-67
2021/12/21 00:57:53;;;;;;;30.23;14.10;;;-1.00;87.80;;;;;;5016154;28;20188;-67
2021/12/21 01:00:23;;;;;;;28.23;16.15;;;-1.00;87.30;;;;;;5016093;28;20223;-68
2021/12/21 01:02:51;;;;;;;26.33;14.68;;;-1.00;86.20;;;;;;5034431;28;20195;-67
2021/12/21 01:05:25;;;;;;;30.98;12.88;;;-1.00;86.00;;;;;;5029965;28;20188;-67
2021/12/21 01:07:56;;;;;;;25.63;14.48;;;-0.90;86.20;;;;;;5016287;28;20241;-68
2021/12/21 01:13:24;;;;;;;30.67;14.95;;;-0.80;85.20;;;;;;5035696;28;20188;-68
2021/12/21 01:16:02;;;;;;;23.60;14.35;;;-0.70;84.90;;;;;;5016259;28;20203;-67
2021/12/21 01:18:35;;;;;;;26.08;14.23;;;-0.70;84.50;;;;;;5015676;28;20651;-67
2021/12/21 01:21:08;;;;;;;23.58;14.60;;;-0.70;84.10;;;;;;5015718;28;20196;-67
2021/12/21 01:23:54;;;;;;;24.73;14.13;;;-0.70;84.00;;;;;;5015870;28;20200;-67
2021/12/21 01:26:29;;;;;;;26.52;13.15;;;-0.60;83.70;;;;;;5015758;28;20663;-67
2021/12/21 01:29:06;;;;;;;27.30;12.68;;;-0.60;82.80;;;;;;5016859;28;20192;-67
2021/12/21 01:31:42;;;;;;;22.52;12.38;;;-0.60;82.40;;;;;;5035136;28;20229;-67
2021/12/21 01:34:24;;;;;;;23.70;14.50;;;-0.60;82.60;;;;;;5032029;28;20274;-67
2021/12/21 01:36:57;;;;;;;25.58;12.20;;;-0.60;82.30;;;;;;5015398;28;20715;-67
2021/12/21 01:39:53;;;;;;;28.45;14.40;;;-0.60;82.40;;;;;;5016218;28;20184;-68
2021/12/21 01:42:30;;;;;;;28.98;14.05;;;-0.60;82.60;;;;;;5026986;28;20191;-67
2021/12/21 01:50:28;;;;;;;27.60;13.88;;;-0.70;82.30;;;;;;5034898;28;20230;-67
2021/12/21 01:52:55;;;;;;;28.63;13.45;;;-0.70;82.10;;;;;;5023475;28;20184;-67
2021/12/21 01:55:22;;;;;;;27.77;14.60;;;-0.70;82.40;;;;;;5015105;28;20654;-68
2021/12/21 01:57:50;;;;;;;33.78;15.15;;;-0.70;82.40;;;;;;5024445;28;20191;-67
2021/12/21 02:00:19;;;;;;;25.23;12.77;;;-0.70;82.60;;;;;;5034964;28;20261;-67
2021/12/21 02:02:46;;;;;;;22.77;13.15;;;-0.60;83.40;;;;;;5025784;28;20291;-67
2021/12/21 02:05:14;;;;;;;25.52;13.48;;;-0.70;82.80;;;;;;5014838;28;20188;-68
2021/12/21 02:07:41;;;;;;;22.50;13.00;;;-0.70;82.50;;;;;;5022041;28;20212;-67
2021/12/21 02:10:09;;;;;;;25.48;14.15;;;-0.70;82.50;;;;;;5034536;28;20258;-67
2021/12/21 02:12:37;;;;;;;16.30;10.63;;;-0.70;82.00;;;;;;5027793;28;20285;-68
2021/12/21 02:15:05;;;;;;;17.45;10.50;;;-0.70;81.70;;;;;;5015879;28;20278;-67
2021/12/21 02:18:25;;;;;;;19.95;10.48;;;-0.70;81.70;;;;;;5015730;28;20199;-67
2021/12/21 02:20:56;;;;;;;21.35;9.88;;;-0.70;81.60;;;;;;5015500;28;20625;-67
2021/12/21 02:23:29;;;;;;;16.70;10.25;;;-0.80;80.80;;;;;;5022298;28;20231;-67
2021/12/21 02:26:22;;;;;;;17.73;10.60;;;-0.80;81.20;;;;;;5014738;28;20283;-67
2021/12/21 02:29:11;;;;;;;17.75;11.10;;;-0.80;81.30;;;;;;5028583;28;20219;-67
2021/12/21 02:31:42;;;;;;;17.77;11.40;;;-0.80;81.20;;;;;;5030478;28;20243;-68
2021/12/21 02:34:09;;;;;;;18.00;11.27;;;-0.80;80.90;;;;;;5014455;28;20699;-67
2021/12/21 02:36:39;;;;;;;21.17;12.68;;;-0.90;81.30;;;;;;5016737;28;20271;-67
2021/12/21 02:39:08;;;;;;;19.15;9.38;;;-0.90;82.00;;;;;;5033890;28;20218;-67
2021/12/21 02:41:36;;;;;;;17.92;10.07;;;-0.90;81.90;;;;;;5031803;28;20198;-67
2021/12/21 02:44:04;;;;;;;17.02;8.82;;;-0.90;82.20;;;;;;5014216;28;20659;-67
2021/12/21 02:46:31;;;;;;;18.30;10.50;;;-0.80;82.60;;;;;;5025800;28;20192;-67
2021/12/21 02:48:58;;;;;;;13.95;9.80;;;-0.70;83.00;;;;;;5034142;28;20576;-67
2021/12/21 02:51:26;;;;;;;18.08;11.35;;;-0.60;82.80;;;;;;5022924;28;20317;-67
2021/12/21 02:53:54;;;;;;;17.50;10.00;;;-0.60;82.00;;;;;;5013207;28;20230;-67
2021/12/21 02:56:22;;;;;;;17.15;10.30;;;-0.60;82.00;;;;;;5022947;28;20242;-67
2021/12/21 02:58:50;;;;;;;16.95;10.25;;;-0.60;81.80;;;;;;5033686;28;20199;-68
2021/12/21 03:01:18;;;;;;;16.25;10.32;;;-0.60;81.50;;;;;;5024859;28;20185;-67
2021/12/21 03:03:46;;;;;;;19.33;10.60;;;-0.60;82.00;;;;;;5013912;28;20193;-67
2021/12/21 03:06:34;;;;;;;19.92;11.05;;;-0.60;81.90;;;;;;5020204;28;20195;-68
2021/12/21 03:09:12;;;;;;;21.98;12.15;;;-0.60;82.10;;;;;;5033454;28;20195;-69
2021/12/21 03:11:48;;;;;;;18.05;10.73;;;-0.70;81.80;;;;;;5023058;28;20212;-67
2021/12/21 03:14:16;;;;;;;20.60;10.90;;;-0.80;82.00;;;;;;5013653;28;20191;-67
2021/12/21 03:16:43;;;;;;;14.68;10.75;;;-0.80;82.80;;;;;;5019350;28;20184;-70
2021/12/21 03:19:12;;;;;;;18.27;10.75;;;-0.80;82.50;;;;;;5033503;28;20199;-67
2021/12/21 03:21:40;;;;;;;19.52;11.35;;;-0.90;82.20;;;;;;5019535;28;20184;-67
2021/12/21 03:24:10;;;;;;;14.93;9.30;;;-0.90;81.80;;;;;;5013531;28;20607;-67
2021/12/21 03:26:38;;;;;;;18.95;11.80;;;-0.90;81.20;;;;;;5025466;28;20274;-67
2021/12/21 03:29:06;;;;;;;19.83;11.88;;;-0.90;81.30;;;;;;5033478;28;20664;-67
2021/12/21 03:31:34;;;;;;;20.25;10.18;;;-1.00;81.50;;;;;;5021466;28;20585;-67
2021/12/21 03:34:01;;;;;;;20.77;11.63;;;-1.10;81.80;;;;;;5013337;28;20553;-67
2021/12/21 03:36:28;;;;;;;22.77;13.13;;;-1.30;82.70;;;;;;5022450;28;20227;-67
2021/12/21 03:39:00;;;;;;;19.02;9.77;;;-1.30;83.20;;;;;;5032488;28;20243;-67
2021/12/21 03:41:30;;;;;;;13.40;9.43;;;-1.20;82.80;;;;;;5022893;28;20238;-67
2021/12/21 03:44:00;;;;;;;17.52;11.40;;;-1.10;83.10;;;;;;5014616;28;20195;-67
2021/12/21 03:46:28;;;;;;;17.85;10.57;;;-1.10;83.20;;;;;;5032839;28;20195;-67
2021/12/21 03:48:55;;;;;;;18.13;10.68;;;-1.20;84.20;;;;;;5031326;28;20598;-67
2021/12/21 03:51:23;;;;;;;15.68;10.15;;;-1.10;84.70;;;;;;5012725;28;20317;-67
2021/12/21 03:53:51;;;;;;;19.15;10.55;;;-1.10;84.30;;;;;;5012579;28;20334;-68
2021/12/21 03:56:38;;;;;;;19.13;9.88;;;-1.00;84.00;;;;;;5012961;28;20188;-67
2021/12/21 03:59:07;;;;;;;24.30;12.75;;;-1.10;84.30;;;;;;5013858;28;20286;-67
2021/12/21 04:01:35;;;;;;;20.00;10.63;;;-1.10;85.30;;;;;;5032928;28;20282;-67
2021/12/21 04:04:03;;;;;;;18.73;10.70;;;-1.10;84.80;;;;;;5031629;28;20191;-67
2021/12/21 04:06:30;;;;;;;17.02;9.85;;;-1.10;85.00;;;;;;5012720;28;20196;-67
2021/12/21 04:08:57;;;;;;;17.58;9.80;;;-1.00;85.40;;;;;;5012688;28;20236;-67
2021/12/21 04:11:24;;;;;;;18.52;10.00;;;-0.90;85.00;;;;;;5013408;28;20215;-68
2021/12/21 04:13:52;;;;;;;20.25;10.10;;;-1.00;84.90;;;;;;5012657;28;20188;-67
2021/12/21 04:16:20;;;;;;;23.48;12.35;;;-1.00;84.70;;;;;;5030478;28;20268;-67
2021/12/21 04:18:48;;;;;;;25.98;12.50;;;-1.00;85.20;;;;;;5016508;28;20196;-68
2021/12/21 04:21:15;;;;;;;24.85;10.82;;;-1.00;85.90;;;;;;5012923;28;20196;-68
2021/12/21 04:23:45;;;;;;;21.00;11.35;;;-0.90;86.70;;;;;;5026527;28;20192;-67
2021/12/21 04:26:15;;;;;;;24.90;12.38;;;-0.90;87.10;;;;;;5032400;28;20202;-67
2021/12/21 04:28:43;;;;;;;22.33;11.38;;;-0.90;87.20;;;;;;5018704;28;20192;-68
2021/12/21 04:31:11;;;;;;;16.75;9.60;;;-0.90;87.30;;;;;;5012374;28;20220;-68
2021/12/21 04:33:43;;;;;;;24.75;10.90;;;-0.90;87.90;;;;;;5024683;28;20642;-67
2021/12/21 04:36:11;;;;;;;19.95;10.40;;;-0.80;87.90;;;;;;5032563;28;20227;-67
2021/12/21 04:38:42;;;;;;;19.10;12.13;;;-0.80;86.90;;;;;;5019090;28;20200;-67
2021/12/21 04:41:14;;;;;;;17.90;10.40;;;-0.70;86.80;;;;;;5012550;28;20282;-67
2021/12/21 04:43:43;;;;;;;20.90;11.30;;;-0.70;86.70;;;;;;5024843;28;20187;-68
2021/12/21 04:46:11;;;;;;;20.58;12.35;;;-0.80;86.70;;;;;;5032318;28;20191;-67
2021/12/21 04:48:40;;;;;;;23.08;11.18;;;-0.70;86.70;;;;;;5020243;28;20266;-67
2021/12/21 04:51:07;;;;;;;23.58;11.77;;;-0.80;86.40;;;;;;5012426;28;20235;-67
2021/12/21 04:53:34;;;;;;;23.70;12.43;;;-0.70;86.70;;;;;;5022807;28;20195;-67
2021/12/21 04:56:03;;;;;;;24.67;10.40;;;-0.70;86.10;;;;;;5031912;28;20191;-67
2021/12/21 04:58:31;;;;;;;23.10;11.40;;;-0.60;85.80;;;;;;5022099;28;20220;-67
2021/12/21 05:00:59;;;;;;;19.67;9.73;;;-0.60;85.30;;;;;;5018405;28;20253;-67
2021/12/21 05:03:26;;;;;;;20.42;11.20;;;-0.60;84.60;;;;;;5031991;28;20594;-67
2021/12/21 05:05:55;;;;;;;19.15;10.20;;;-0.70;84.30;;;;;;5026148;28;20705;-67
2021/12/21 05:08:25;;;;;;;21.02;10.65;;;-0.80;84.60;;;;;;5012243;28;20218;-67
2021/12/21 05:10:56;;;;;;;23.13;12.40;;;-0.80;86.10;;;;;;5016875;28;20218;-67
2021/12/21 05:13:25;;;;;;;19.10;9.98;;;-0.90;85.40;;;;;;5032045;28;20206;-67
2021/12/21 05:15:53;;;;;;;17.60;9.68;;;-0.80;85.70;;;;;;5028133;28;20200;-69
2021/12/21 05:18:21;;;;;;;21.05;9.25;;;-0.90;85.30;;;;;;5015799;28;20188;-67
2021/12/21 05:20:48;;;;;;;19.65;9.52;;;-0.80;85.40;;;;;;5018584;28;20207;-68
2021/12/21 05:23:17;;;;;;;23.50;11.15;;;-0.80;85.60;;;;;;5035471;28;20241;-67
2021/12/21 05:25:44;;;;;;;23.27;10.65;;;-0.80;86.20;;;;;;5033640;28;20204;-67
2021/12/21 05:28:14;;;;;;;17.55;10.18;;;-0.80;86.50;;;;;;5035422;28;20187;-67
2021/12/21 05:30:42;;;;;;;23.85;11.27;;;-0.90;85.10;;;;;;5033940;28;20187;-68
2021/12/21 05:33:09;;;;;;;20.08;12.70;;;-0.90;84.90;;;;;;5015775;28;20651;-67
2021/12/21 05:35:38;;;;;;;21.77;12.45;;;-1.00;85.20;;;;;;5016241;28;20250;-67
2021/12/21 05:38:08;;;;;;;23.75;11.90;;;-1.00;85.30;;;;;;5015561;28;20203;-68
2021/12/21 05:40:40;;;;;;;21.65;11.70;;;-1.10;85.00;;;;;;5016248;28;20200;-68
2021/12/21 05:43:09;;;;;;;48.47;26.10;;;-1.10;85.60;;;;;;5026090;28;20208;-68
2021/12/21 05:45:36;;;;;;;26.00;12.70;;;-1.10;86.00;;;;;;5015152;28;20240;-67
2021/12/21 05:48:06;;;;;;;22.52;11.02;;;-1.20;85.40;;;;;;5015274;28;20200;-68
2021/12/21 05:50:34;;;;;;;23.27;11.80;;;-1.20;86.00;;;;;;5015222;28;20192;-67
2021/12/21 05:53:01;;;;;;;20.38;9.88;;;-1.20;86.00;;;;;;5015179;28;20298;-68
2021/12/21 05:55:28;;;;;;;20.25;10.98;;;-1.20;85.30;;;;;;5033630;28;20554;-67
2021/12/21 05:57:57;;;;;;;16.15;10.13;;;-1.20;84.90;;;;;;5034756;28;20196;-67
2021/12/21 06:00:26;;;;;;;18.35;10.30;;;-1.30;85.00;;;;;;5016238;28;20188;-67
2021/12/21 06:02:53;;;;;;;20.20;10.60;;;-1.30;85.90;;;;;;5014589;28;20192;-68
2021/12/21 06:05:21;;;;;;;21.80;9.85;;;-1.30;85.20;;;;;;5031486;28;20677;-67
2021/12/21 06:07:51;;;;;;;27.40;10.38;;;-1.40;85.10;;;;;;5034658;28;20608;-67
2021/12/21 06:10:24;;;;;;;26.77;10.98;;;-1.40;85.70;;;;;;5017871;28;20623;-68
2021/12/21 06:13:19;;;;;;;23.15;11.48;;;-1.50;85.10;;;;;;5014817;28;20251;-67
2021/12/21 06:16:06;;;;;;;25.27;12.88;;;-1.50;85.60;;;;;;5015908;28;20191;-67
2021/12/21 06:26:52;;;;;;;22.17;9.70;;;-1.90;84.30;;;;;;5032781;28;20198;-67
2021/12/21 06:29:20;;;;;;;15.55;9.02;;;-1.90;84.60;;;;;;5031784;28;20184;-68
2021/12/21 06:31:50;;;;;;;14.40;8.43;;;-2.00;84.50;;;;;;5032805;28;20215;-68
2021/12/21 06:34:20;;;;;;;20.90;11.25;;;-2.00;85.40;;;;;;5045139;28;20184;-68
2021/12/21 06:36:48;;;;;;;23.50;10.48;;;-2.00;85.40;;;;;;5033201;28;20200;-67
2021/12/21 06:39:15;;;;;;;17.60;12.50;;;-2.00;85.40;;;;;;5036279;28;20191;-67
2021/12/21 06:41:43;;;;;;;19.92;9.80;;;-2.00;85.60;;;;;;5032954;28;20633;-68
2021/12/21 06:44:13;;;;;;;19.95;11.32;;;-2.10;86.00;;;;;;5032508;28;20234;-67
2021/12/21 06:46:50;;;;;;;21.50;10.77;;;-2.00;86.20;;;;;;5032805;28;20191;-67
2021/12/21 06:52:05;;;;;;;26.58;10.25;;;-2.10;86.20;;;;;;5032803;28;20660;-67
2021/12/21 06:54:32;;;;;;;18.92;9.25;;;-2.10;86.20;;;;;;5030181;28;20180;-67
2021/12/21 06:56:59;;;;;;;17.63;9.05;;;-2.10;86.20;;;;;;5032753;28;20200;-68
2021/12/21 06:59:27;;;;;;;20.17;11.02;;;-2.10;86.30;;;;;;5032397;28;20198;-68
2021/12/21 07:01:55;;;;;;;18.20;8.27;;;-2.10;86.30;;;;;;5028139;28;20217;-67
2021/12/21 07:04:25;;;;;;;18.50;9.73;;;-2.20;85.50;;;;;;5032293;28;20289;-67
2021/12/21 07:06:54;;;;;;;12.30;8.15;;;-2.20;85.70;;;;;;5032338;28;20195;-67
2021/12/21 07:09:29;;;;;;;12.82;7.90;;;-2.20;85.90;;;;;;5032480;28;20202;-67
2021/12/21 07:12:15;;;;;;;17.55;8.98;;;-2.20;85.50;;;;;;5035768;28;20571;-67
2021/12/21 07:20:16;;;;;;;15.88;9.18;;;-2.30;84.30;;;;;;5025462;28;20218;-67
2021/12/21 07:22:43;;;;;;;16.05;8.73;;;-2.40;83.80;;;;;;5041813;28;20298;-68
2021/12/21 07:25:11;;;;;;;12.15;7.18;;;-2.30;83.50;;;;;;5031853;28;20202;-67
2021/12/21 07:27:38;;;;;;;18.42;9.63;;;-2.30;82.90;;;;;;5031940;28;20681;-69
2021/12/21 07:30:11;;;;;;;15.25;7.80;;;-2.30;82.00;;;;;;5030734;28;20663;-67
2021/12/21 07:32:38;;;;;;;13.20;7.50;;;-2.30;81.50;;;;;;5024882;28;20624;-68
2021/12/21 07:35:06;;;;;;;13.77;8.85;;;-2.30;80.90;;;;;;5029692;28;20327;-67
2021/12/21 07:37:35;;;;;;;11.27;7.13;;;-2.30;81.20;;;;;;5025527;28;20196;-67
2021/12/21 07:40:02;;;;;;;14.73;8.60;;;-2.20;81.60;;;;;;5012731;28;20658;-67
2021/12/21 07:42:29;;;;;;;14.07;8.43;;;-2.20;81.40;;;;;;5012583;28;20322;-74
2021/12/21 07:44:56;;;;;;;15.63;8.38;;;-2.20;81.10;;;;;;5012821;28;20215;-67
2021/12/21 07:47:23;;;;;;;12.30;8.45;;;-2.20;81.10;;;;;;5012485;28;20617;-67
2021/12/21 07:49:50;;;;;;;14.75;8.52;;;-2.20;80.50;;;;;;5012444;28;20243;-67
2021/12/21 07:52:18;;;;;;;12.55;8.18;;;-2.20;80.70;;;;;;5012502;28;20283;-68
2021/12/21 07:54:46;;;;;;;11.57;7.07;;;-2.20;80.70;;;;;;5012400;28;20282;-68
2021/12/21 07:57:13;;;;;;;11.65;6.10;;;-2.20;80.10;;;;;;5011931;28;20274;-67
2021/12/21 07:59:41;;;;;;;13.82;8.55;;;-2.30;80.40;;;;;;5012258;28;20341;-68
2021/12/21 08:02:09;;;;;;;11.38;6.82;;;-2.20;79.70;;;;;;5012576;28;20222;-68
2021/12/21 08:04:37;;;;;;;12.10;9.40;;;-2.10;79.70;;;;;;5012563;28;20250;-67
2021/12/21 08:07:10;;;;;;;12.85;7.97;;;-2.10;79.90;;;;;;5012369;28;20193;-67
2021/12/21 08:09:41;;;;;;;15.07;7.45;;;-2.10;80.60;;;;;;5012761;28;20196;-68
2021/12/21 08:12:13;;;;;;;13.55;7.50;;;-2.00;80.50;;;;;;5012170;28;20191;-69
2021/12/21 08:14:40;;;;;;;10.35;6.88;;;-1.90;80.20;;;;;;5024602;28;20195;-68
2021/12/21 08:17:07;;;;;;;11.60;7.30;;;-1.90;79.20;;;;;;5031437;28;20257;-67
2021/12/21 08:19:34;;;;;;;12.35;6.95;;;-1.80;79.10;;;;;;5031192;28;20211;-67
2021/12/21 08:22:01;;;;;;;12.85;7.82;;;-1.80;79.20;;;;;;5030618;28;20302;-67
2021/12/21 08:24:29;;;;;;;15.43;8.65;;;-1.70;78.70;;;;;;5030886;28;20621;-67
2021/12/21 08:26:56;;;;;;;18.58;9.88;;;-1.60;78.90;;;;;;5031220;28;20203;-67
2021/12/21 08:29:24;;;;;;;21.15;10.15;;;-1.60;79.20;;;;;;5030274;28;20274;-68
2021/12/21 08:31:51;;;;;;;15.32;9.73;;;-1.50;78.70;;;;;;5030780;28;20227;-67
2021/12/21 08:34:19;;;;;;;14.98;9.27;;;-1.40;79.00;;;;;;5030474;28;20278;-69
2021/12/21 08:36:46;;;;;;;26.38;10.77;;;-1.30;79.40;;;;;;5028484;28;20279;-67
2021/12/21 08:39:14;;;;;;;19.08;10.65;;;-1.30;78.60;;;;;;5030620;28;20263;-67
2021/12/21 08:41:43;;;;;;;14.65;8.55;;;-1.30;78.40;;;;;;5030422;28;20199;-67
2021/12/21 08:44:11;;;;;;;14.57;9.43;;;-1.20;78.80;;;;;;5030707;28;20196;-69
2021/12/21 08:46:40;;;;;;;18.42;9.43;;;-1.20;79.20;;;;;;5031317;28;20195;-67
2021/12/21 08:49:08;;;;;;;12.65;7.80;;;-1.00;79.10;;;;;;5031407;28;20305;-68
2021/12/21 08:51:35;;;;;;;18.88;9.43;;;-1.00;79.40;;;;;;5032936;28;20191;-67
2021/12/21 08:54:01;;;;;;;17.65;10.07;;;-0.90;79.80;;;;;;5035317;28;20602;-67
2021/12/21 08:56:28;;;;;;;15.07;8.90;;;-0.80;80.40;;;;;;5034683;28;20291;-67
2021/12/21 08:58:55;;;;;;;19.38;10.30;;;-0.60;80.40;;;;;;5034772;28;20235;-68
2021/12/21 09:01:22;;;;;;;17.77;9.88;;;-0.60;80.00;;;;;;5035065;28;20378;-68
2021/12/21 09:03:52;;;;;;;13.05;8.68;;;-0.60;79.80;;;;;;5034945;28;20229;-69
2021/12/21 09:06:19;;;;;;;20.52;8.88;;;-0.50;79.00;;;;;;5032837;28;20214;-68
2021/12/21 09:08:46;;;;;;;12.45;8.13;;;-0.50;79.50;;;;;;5033575;28;20245;-68
2021/12/21 09:11:13;;;;;;;19.13;10.15;;;-0.40;79.50;;;;;;5034919;28;20195;-74
2021/12/21 09:13:40;;;;;;;13.02;7.75;;;-0.40;79.30;;;;;;5035142;28;20199;-68
2021/12/21 09:16:07;;;;;;;14.63;8.75;;;-0.40;79.30;;;;;;5035160;28;20283;-67
2021/12/21 09:18:34;;;;;;;14.05;7.38;;;-0.30;79.60;;;;;;5035466;28;20287;-67
2021/12/21 09:21:02;;;;;;;13.50;6.70;;;-0.20;79.80;;;;;;5035116;28;20278;-67
2021/12/21 09:23:29;;;;;;;13.30;7.03;;;-0.10;79.40;;;;;;5035011;28;20259;-67
2021/12/21 09:25:56;;;;;;;14.10;8.70;;;-0.10;79.70;;;;;;5035326;28;20282;-68
2021/12/21 09:28:23;;;;;;;21.02;10.30;;;0.00;79.90;;;;;;5034850;28;20550;-67
2021/12/21 09:30:50;;;;;;;12.88;8.07;;;0.10;79.50;;;;;;5034639;28;20641;-69
2021/12/21 09:33:18;;;;;;;13.85;8.10;;;0.10;77.70;;;;;;5035013;28;20231;-68
2021/12/21 09:35:45;;;;;;;17.63;8.00;;;0.10;77.10;;;;;;5035050;28;20763;-68
2021/12/21 09:38:13;;;;;;;15.65;7.47;;;0.20;77.60;;;;;;5034881;28;20301;-68
2021/12/21 09:40:40;;;;;;;10.98;7.82;;;0.30;78.00;;;;;;5035052;28;20278;-68
2021/12/21 09:43:10;;;;;;;16.25;9.13;;;0.20;77.20;;;;;;5034894;28;20273;-67
2021/12/21 09:45:38;;;;;;;11.73;7.72;;;0.40;77.90;;;;;;5035168;28;20195;-67
2021/12/21 09:48:05;;;;;;;17.48;7.80;;;0.40;77.40;;;;;;5035165;28;20290;-67
2021/12/21 09:50:33;;;;;;;13.43;7.50;;;0.50;77.20;;;;;;5034790;28;20278;-67
2021/12/21 09:53:00;;;;;;;16.42;8.38;;;0.50;76.60;;;;;;5032405;28;20709;-69
2021/12/21 09:55:29;;;;;;;13.45;7.57;;;0.50;76.60;;;;;;5043318;28;20285;-67
2021/12/21 09:57:57;;;;;;;16.90;8.45;;;0.60;75.60;;;;;;5041930;28;20199;-67
2021/12/21 10:00:28;;;;;;;12.90;8.32;;;0.50;74.30;;;;;;5045489;28;20204;-67
2021/12/21 10:03:01;;;;;;;14.63;8.45;;;0.50;76.20;;;;;;5044062;28;20218;-67
2021/12/21 10:05:29;;;;;;;12.52;7.00;;;0.60;76.60;;;;;;5042692;28;20194;-67
2021/12/21 10:07:59;;;;;;;14.80;8.35;;;0.70;77.00;;;;;;5044227;28;20289;-67
2021/12/21 10:10:26;;;;;;;14.70;7.18;;;0.80;77.20;;;;;;5040553;28;20276;-70
2021/12/21 10:12:54;;;;;;;13.95;8.43;;;0.80;76.20;;;;;;5046038;28;20285;-67
2021/12/21 10:15:23;;;;;;;10.70;7.00;;;0.90;75.90;;;;;;5046565;28;20281;-68
2021/12/21 10:17:52;;;;;;;15.30;8.48;;;1.00;75.80;;;;;;5044880;28;20199;-68
2021/12/21 10:20:33;;;;;;;13.05;8.18;;;1.10;76.10;;;;;;5047292;28;20610;-68
2021/12/21 10:23:00;;;;;;;13.25;8.13;;;1.10;75.50;;;;;;5041619;28;20681;-67
2021/12/21 10:25:28;;;;;;;12.98;9.05;;;1.20;75.20;;;;;;5045650;28;20278;-67
2021/12/21 10:27:56;;;;;;;12.98;7.97;;;1.20;75.00;;;;;;5044114;28;20241;-67
2021/12/21 10:30:23;;;;;;;13.20;8.13;;;1.20;74.70;;;;;;5047990;28;20198;-67
2021/12/21 10:32:52;;;;;;;13.35;8.27;;;1.30;74.40;;;;;;5048012;28;20294;-67
2021/12/21 10:35:20;;;;;;;15.88;10.30;;;1.30;74.30;;;;;;5036714;28;20306;-67
2021/12/21 10:37:51;;;;;;;14.63;8.98;;;1.40;75.20;;;;;;5034294;28;20287;-69
2021/12/21 10:40:25;;;;;;;15.40;9.65;;;1.40;74.30;;;;;;5034379;28;20191;-68
2021/12/21 10:42:57;;;;;;;14.52;9.18;;;1.40;74.30;;;;;;5034391;28;20215;-67
2021/12/21 10:45:30;;;;;;;17.65;8.80;;;1.50;74.30;;;;;;5034378;28;20227;-68
2021/12/21 10:47:59;;;;;;;14.30;8.38;;;1.50;74.30;;;;;;5034347;28;20278;-67
2021/12/21 10:50:28;;;;;;;16.90;9.20;;;1.60;74.10;;;;;;5034199;28;20204;-68
2021/12/21 10:52:58;;;;;;;14.20;8.98;;;1.70;73.70;;;;;;5034314;28;20192;-67
2021/12/21 10:55:31;;;;;;;16.67;11.68;;;1.70;72.90;;;;;;5034278;28;20196;-69
2021/12/21 10:58:11;;;;;;;16.38;13.23;;;1.60;73.40;;;;;;5034296;28;20200;-67
2021/12/21 11:00:41;;;;;;;15.65;8.80;;;1.70;73.30;;;;;;5033967;28;20704;-69
2021/12/21 11:03:08;;;;;;;16.65;8.65;;;1.70;73.30;;;;;;5033950;28;20744;-68
2021/12/21 11:05:35;;;;;;;11.68;7.85;;;1.70;73.00;;;;;;5033963;28;20282;-67
2021/12/21 11:08:06;;;;;;;16.98;9.90;;;1.80;73.60;;;;;;5033972;28;20515;-67
2021/12/21 11:10:37;;;;;;;12.48;8.77;;;1.80;73.50;;;;;;5034201;28;20227;-68
2021/12/21 11:13:08;;;;;;;13.00;9.00;;;1.80;73.80;;;;;;5033578;28;20282;-67
2021/12/21 11:15:38;;;;;;;14.75;10.05;;;1.80;73.90;;;;;;5033750;28;20191;-68
2021/12/21 11:18:08;;;;;;;22.17;9.32;;;1.90;73.40;;;;;;5034028;28;20537;-69
2021/12/21 11:20:37;;;;;;;13.43;8.20;;;1.90;73.40;;;;;;5034075;28;20202;-70
2021/12/21 11:23:04;;;;;;;16.05;8.90;;;1.90;72.90;;;;;;5033485;28;20224;-67
2021/12/21 11:25:32;;;;;;;9.40;6.60;;;1.90;72.40;;;;;;5033413;28;20230;-67
2021/12/21 11:28:02;;;;;;;13.77;8.38;;;1.90;72.20;;;;;;5033908;28;20198;-67
2021/12/21 11:30:30;;;;;;;16.35;8.90;;;1.80;71.70;;;;;;5033400;28;20199;-67
2021/12/21 11:32:59;;;;;;;13.55;9.32;;;1.60;70.20;;;;;;5033733;28;20227;-69
2021/12/21 11:38:14;;;;;;;14.32;9.88;;;1.50;71.30;;;;;;5033567;28;20190;-68
2021/12/21 11:40:45;;;;;;;16.00;9.43;;;1.30;71.40;;;;;;5033547;28;20203;-67
2021/12/21 11:43:23;;;;;;;13.45;8.40;;;1.30;72.80;;;;;;5033448;28;20743;-68
2021/12/21 11:45:56;;;;;;;14.50;8.57;;;1.40;73.60;;;;;;5033539;28;20222;-68
2021/12/21 11:48:38;;;;;;;15.95;8.60;;;1.30;72.20;;;;;;5033197;28;20191;-68
2021/12/21 11:51:10;;;;;;;15.65;9.18;;;1.40;73.30;;;;;;5033184;28;20180;-67
2021/12/21 11:53:38;;;;;;;13.02;9.02;;;1.50;73.60;;;;;;5033154;28;20282;-72
2021/12/21 11:56:07;;;;;;;17.58;10.25;;;1.60;73.90;;;;;;5033100;28;20665;-67
2021/12/21 11:58:38;;;;;;;13.15;8.95;;;1.60;73.50;;;;;;5033328;28;20227;-67
2021/12/21 12:01:14;;;;;;;17.95;9.15;;;1.60;73.30;;;;;;5033345;28;20747;-67
2021/12/21 12:03:46;;;;;;;14.63;9.00;;;1.70;73.00;;;;;;5032599;28;20219;-67
2021/12/21 12:06:16;;;;;;;16.75;9.07;;;1.80;72.90;;;;;;5032702;28;20202;-67
2021/12/21 12:08:45;;;;;;;20.08;8.65;;;1.90;73.10;;;;;;5033045;28;20661;-68
2021/12/21 12:11:23;;;;;;;18.13;9.15;;;2.00;73.00;;;;;;5032963;28;20282;-68
2021/12/21 12:14:02;;;;;;;14.10;9.48;;;2.10;72.60;;;;;;5033197;28;20202;-68
2021/12/21 12:16:40;;;;;;;21.55;7.03;;;2.30;72.60;;;;;;5032881;28;20214;-69
2021/12/21 12:19:12;;;;;;;11.93;9.00;;;2.40;71.90;;;;;;5033277;28;20312;-67
2021/12/21 12:21:39;;;;;;;17.27;11.52;;;2.60;70.80;;;;;;5032885;28;20282;-69
2021/12/21 12:24:06;;;;;;;16.55;10.30;;;2.60;70.00;;;;;;5033009;28;20306;-67
2021/12/21 12:26:35;;;;;;;13.95;8.13;;;2.70;70.30;;;;;;5032935;28;20238;-67
2021/12/21 12:29:13;;;;;;;15.10;9.18;;;2.70;69.60;;;;;;5032942;28;20681;-72
2021/12/21 12:31:43;;;;;;;12.23;8.70;;;2.70;69.00;;;;;;5032482;28;20266;-68
2021/12/21 12:34:10;;;;;;;12.15;8.95;;;2.70;68.80;;;;;;5032823;28;20286;-69
2021/12/21 12:36:40;;;;;;;16.25;9.30;;;2.70;68.80;;;;;;5032691;28;20314;-68
2021/12/21 12:39:08;;;;;;;12.38;8.20;;;2.70;68.50;;;;;;5032820;28;20204;-67
2021/12/21 12:41:47;;;;;;;17.40;10.52;;;2.70;68.70;;;;;;5032586;28;20282;-68
2021/12/21 12:44:25;;;;;;;15.27;8.85;;;2.60;68.20;;;;;;5032591;28;20255;-68
2021/12/21 12:46:57;;;;;;;14.30;8.63;;;2.60;68.30;;;;;;5032601;28;20710;-68
2021/12/21 12:49:26;;;;;;;12.93;9.52;;;2.50;68.20;;;;;;5032844;28;20192;-67
2021/12/21 12:52:02;;;;;;;12.05;7.25;;;2.50;67.90;;;;;;5032664;28;20230;-68
2021/12/21 12:54:29;;;;;;;13.70;8.85;;;2.40;68.00;;;;;;5032485;28;20187;-67
2021/12/21 12:56:56;;;;;;;13.85;7.88;;;2.40;68.30;;;;;;5032609;28;20646;-67
2021/12/21 12:59:23;;;;;;;11.20;7.13;;;2.40;68.20;;;;;;5032682;28;20282;-67
2021/12/21 13:01:53;;;;;;;11.05;7.60;;;2.50;68.60;;;;;;5032599;28;20615;-68
2021/12/21 13:04:21;;;;;;;14.27;8.00;;;2.50;67.30;;;;;;5032166;28;20231;-67
2021/12/21 13:06:52;;;;;;;13.82;9.10;;;2.40;67.50;;;;;;5032571;28;20234;-68
2021/12/21 13:09:20;;;;;;;14.40;9.00;;;2.30;66.90;;;;;;5032589;28;20207;-67
2021/12/21 13:11:47;;;;;;;17.55;9.20;;;2.20;68.00;;;;;;5032313;28;20191;-68
2021/12/21 13:14:16;;;;;;;10.55;8.13;;;2.20;67.70;;;;;;5032622;28;20283;-67
2021/12/21 13:16:46;;;;;;;13.98;8.90;;;2.20;68.50;;;;;;5032176;28;20290;-67
2021/12/21 13:19:15;;;;;;;12.35;8.27;;;2.20;68.20;;;;;;5032438;28;20191;-68